Аэропорт: Домодедово. Москва

ICAO: UUDD

METAR:
2020-06-01 02:00:00
UUDD 010200Z 04007MPS 9999 -SHRA BKN009 BKN026CB 08/06 Q1010 R32L/290042 NOSIG
METAR:
2020-05-31 22:59:00
TAF UUDD 312259Z 0100/0206 03006MPS 8000 -RA FEW007 BKN016 TX11/0110Z TN07/0103Z TEMPO 0106/0118 06008G14MPS -SHRA BKN013CB TEMPO 0201/0206 -SHRA FEW006 BKN012CB